createdAt,value
2022-12-17T00:03:03.397Z,57.42
2022-12-17T00:07:44.101Z,54.38
2022-12-17T00:12:24.664Z,50.67
2022-12-17T00:17:05.543Z,54.30
2022-12-17T00:21:46.240Z,54.40
2022-12-17T00:26:27.565Z,51.35
2022-12-17T00:31:11.652Z,52.65
2022-12-17T00:35:52.445Z,55.55
2022-12-17T00:40:33.314Z,51.40
2022-12-17T00:45:14.301Z,53.65
2022-12-17T00:49:56.180Z,53.30
2022-12-17T00:54:39.111Z,53.28
2022-12-17T00:59:19.891Z,52.80
2022-12-17T01:04:00.544Z,54.17
2022-12-17T01:08:41.519Z,52.58
2022-12-17T01:13:22.443Z,47.47
2022-12-17T01:18:03.232Z,54.33
2022-12-17T01:22:43.733Z,55.25
2022-12-17T01:27:24.155Z,55.78
2022-12-17T01:32:05.149Z,55.95
2022-12-17T01:36:45.870Z,55.78
2022-12-17T01:41:26.406Z,54.72
2022-12-17T01:46:08.940Z,55.22
2022-12-17T01:51:03.945Z,58.05
2022-12-17T01:55:44.735Z,58.05
2022-12-17T02:00:30.123Z,55.78
2022-12-17T02:05:11.292Z,54.08
2022-12-17T02:10:44.037Z,51.92
2022-12-17T02:15:47.695Z,52.30
2022-12-17T02:20:37.493Z,52.15
2022-12-17T02:25:28.169Z,49.80
2022-12-17T02:30:14.797Z,50.58
2022-12-17T02:35:06.379Z,47.85
2022-12-17T02:39:49.841Z,48.22
2022-12-17T02:44:34.322Z,50.90
2022-12-17T02:49:15.138Z,47.63
2022-12-17T02:54:03.994Z,51.67
2022-12-17T02:58:45.566Z,48.55
2022-12-17T03:03:27.691Z,48.67
2022-12-17T03:08:08.706Z,48.22
2022-12-17T03:12:49.239Z,49.58
2022-12-17T03:17:29.930Z,48.67
2022-12-17T03:22:10.786Z,50.17
2022-12-17T03:26:51.356Z,46.45
2022-12-17T03:31:32.294Z,45.85
2022-12-17T03:36:13.582Z,50.25
2022-12-17T03:40:54.467Z,49.70
2022-12-17T03:45:35.098Z,50.78
2022-12-17T03:50:15.754Z,49.67
2022-12-17T03:54:56.413Z,48.78
2022-12-17T03:59:37.147Z,50.28
2022-12-17T04:04:17.621Z,50.33
2022-12-17T04:08:58.098Z,48.72
2022-12-17T04:13:41.126Z,47.25
2022-12-17T04:18:22.118Z,51.17
2022-12-17T04:23:02.906Z,51.17
2022-12-17T04:27:43.550Z,49.15
2022-12-17T04:32:24.388Z,51.22
2022-12-17T04:37:04.685Z,51.60
2022-12-17T04:41:45.501Z,50.97
2022-12-17T04:46:26.230Z,48.78
2022-12-17T04:51:07.085Z,50.60
2022-12-17T04:55:47.558Z,51.90
2022-12-17T05:00:28.677Z,51.65
2022-12-17T05:05:09.135Z,53.33
2022-12-17T05:09:50.189Z,51.03
2022-12-17T05:14:41.229Z,57.88
2022-12-17T05:19:21.669Z,57.00
2022-12-17T05:24:02.441Z,59.38
2022-12-17T05:28:43.225Z,57.70
2022-12-17T05:33:24.015Z,57.58
2022-12-17T05:38:04.713Z,58.42
2022-12-17T05:42:45.322Z,58.70
2022-12-17T05:47:26.219Z,60.25
2022-12-17T05:52:08.101Z,61.35
2022-12-17T05:56:48.664Z,58.97
2022-12-17T06:01:29.353Z,58.63
2022-12-17T06:06:14.994Z,60.60
2022-12-17T06:10:55.716Z,60.92
2022-12-17T06:15:36.336Z,60.67
2022-12-17T06:20:37.008Z,55.65
2022-12-17T06:25:18.504Z,54.55
2022-12-17T06:29:59.367Z,60.47
2022-12-17T06:34:40.191Z,61.97
2022-12-17T06:39:21.094Z,57.80
2022-12-17T06:44:01.492Z,61.60
2022-12-17T06:48:42.221Z,62.55
2022-12-17T06:53:26.067Z,61.08
2022-12-17T06:58:06.720Z,58.42
2022-12-17T07:02:47.891Z,63.40
2022-12-17T07:07:29.974Z,66.60
2022-12-17T07:12:11.050Z,65.32
2022-12-17T07:16:52.064Z,63.83
2022-12-17T07:21:32.897Z,65.38
2022-12-17T07:26:15.430Z,62.03
2022-12-17T07:30:56.341Z,68.47
2022-12-17T07:35:37.192Z,65.43
2022-12-17T07:40:18.081Z,60.58
2022-12-17T07:44:58.644Z,64.35
2022-12-17T07:49:39.519Z,59.90
2022-12-17T07:54:19.980Z,62.88
2022-12-17T07:59:00.760Z,59.85
2022-12-17T08:03:41.802Z,61.25
2022-12-17T08:08:28.013Z,59.40
2022-12-17T08:13:17.354Z,62.90
2022-12-17T08:17:58.119Z,62.95
2022-12-17T08:22:38.906Z,61.40
2022-12-17T08:27:19.634Z,57.78
2022-12-17T08:32:00.129Z,57.78
2022-12-17T08:36:40.921Z,60.80
2022-12-17T08:41:22.297Z,65.05
2022-12-17T08:46:07.801Z,60.08
2022-12-17T08:50:48.577Z,59.33
2022-12-17T08:55:29.617Z,56.00
2022-12-17T09:00:10.741Z,56.30
2022-12-17T09:04:51.936Z,57.30
2022-12-17T09:09:32.802Z,51.88
2022-12-17T09:14:13.462Z,54.03
2022-12-17T09:18:54.457Z,55.40
2022-12-17T09:23:36.592Z,50.30
2022-12-17T09:28:21.851Z,46.75
2022-12-17T09:33:02.917Z,43.13
2022-12-17T09:37:43.806Z,47.65
2022-12-17T09:42:33.783Z,45.53
2022-12-17T09:47:57.782Z,40.35
2022-12-17T09:52:43.600Z,32.40
2022-12-17T09:57:25.372Z,33.85
2022-12-17T10:02:06.626Z,33.28
2022-12-17T10:06:48.092Z,28.10
2022-12-17T10:11:43.061Z,31.15
2022-12-17T10:16:49.031Z,31.75
2022-12-17T10:21:31.578Z,31.92
2022-12-17T10:26:14.574Z,29.95
2022-12-17T10:30:55.602Z,29.60
2022-12-17T10:35:40.572Z,27.23
2022-12-17T10:40:23.969Z,31.08
2022-12-17T10:45:04.780Z,29.65
2022-12-17T10:49:45.756Z,30.40
2022-12-17T10:54:50.175Z,29.75
2022-12-17T10:59:55.847Z,29.30
2022-12-17T11:04:50.955Z,26.83
2022-12-17T11:10:09.167Z,25.92
2022-12-17T11:15:06.202Z,22.48
2022-12-17T11:20:12.798Z,19.88
2022-12-17T11:25:08.355Z,23.63
2022-12-17T11:29:49.206Z,20.13
2022-12-17T11:34:51.202Z,21.33
2022-12-17T11:40:02.034Z,21.55
2022-12-17T11:45:03.740Z,20.13
2022-12-17T11:49:53.177Z,20.98
2022-12-17T11:54:58.763Z,20.10
2022-12-17T12:00:04.268Z,18.65
2022-12-17T12:04:57.688Z,20.08
2022-12-17T12:09:56.784Z,20.50
2022-12-17T12:15:13.044Z,20.10
2022-12-17T12:20:29.837Z,18.33
2022-12-17T12:25:24.739Z,17.25
2022-12-17T12:30:34.025Z,16.95
2022-12-17T12:35:16.870Z,18.70
2022-12-17T12:40:25.932Z,18.38
2022-12-17T12:45:13.268Z,16.42
2022-12-17T12:50:35.423Z,15.30
2022-12-17T12:55:16.088Z,16.60
2022-12-17T12:59:57.244Z,15.18
2022-12-17T13:05:14.591Z,16.50
2022-12-17T13:09:49.441Z,19.27
2022-12-17T13:14:30.936Z,15.90
2022-12-17T13:19:18.426Z,16.48
2022-12-17T13:23:40.627Z,17.45
2022-12-17T13:28:05.502Z,15.70
2022-12-17T13:32:38.755Z,17.05
2022-12-17T13:37:18.169Z,16.20
2022-12-17T13:41:40.088Z,18.15
2022-12-17T13:46:02.182Z,20.80
2022-12-17T13:50:35.304Z,24.23
2022-12-17T13:55:19.625Z,21.10
2022-12-17T13:59:48.909Z,21.85
2022-12-17T14:04:28.149Z,21.38
2022-12-17T14:08:54.311Z,21.08
2022-12-17T14:13:16.951Z,22.48
2022-12-17T14:17:45.304Z,23.45
2022-12-17T14:22:07.350Z,24.02
2022-12-17T14:26:29.860Z,22.83
2022-12-17T14:31:26.071Z,22.27
2022-12-17T14:35:54.243Z,21.30
2022-12-17T14:40:19.004Z,19.67
2022-12-17T14:44:55.605Z,21.63
2022-12-17T14:49:21.108Z,19.60
2022-12-17T14:53:43.218Z,18.75
2022-12-17T14:58:17.640Z,21.42
2022-12-17T15:02:39.757Z,21.05
2022-12-17T15:07:02.942Z,17.38
2022-12-17T15:11:25.335Z,16.98
2022-12-17T15:15:47.339Z,17.80
2022-12-17T15:20:21.631Z,17.30
2022-12-17T15:29:29.567Z,16.23
2022-12-17T15:33:51.339Z,16.77
2022-12-17T15:38:13.363Z,16.83
2022-12-17T15:42:53.746Z,16.30
2022-12-17T15:47:15.786Z,15.30
2022-12-17T15:51:37.982Z,16.65
2022-12-17T15:56:04.447Z,17.75
2022-12-17T16:00:26.445Z,16.73
2022-12-17T16:04:48.290Z,18.27
2022-12-17T16:09:10.212Z,18.08
2022-12-17T16:13:32.126Z,17.13
2022-12-17T16:17:53.957Z,17.33
2022-12-17T16:22:16.592Z,18.73
2022-12-17T16:26:38.397Z,17.92
2022-12-17T16:31:07.263Z,15.20
2022-12-17T16:35:29.188Z,16.92
2022-12-17T16:39:58.235Z,25.80
2022-12-17T16:44:22.007Z,18.52
2022-12-17T16:48:43.821Z,18.65
2022-12-17T16:53:05.839Z,18.48
2022-12-17T16:57:27.926Z,19.88
2022-12-17T17:01:52.031Z,19.98
2022-12-17T17:06:14.968Z,20.63
2022-12-17T17:10:37.306Z,21.67
2022-12-17T17:15:01.701Z,23.88
2022-12-17T17:19:23.406Z,20.77
2022-12-17T17:23:48.379Z,21.77
2022-12-17T17:28:10.332Z,22.95
2022-12-17T17:32:32.437Z,23.02
2022-12-17T17:36:54.460Z,23.35
2022-12-17T17:41:23.630Z,24.02
2022-12-17T17:45:45.408Z,23.25
2022-12-17T17:50:07.645Z,26.67
2022-12-17T17:54:29.647Z,24.67
2022-12-17T17:58:59.612Z,23.17
2022-12-17T18:03:21.853Z,29.60
2022-12-17T18:07:43.715Z,24.13
2022-12-17T18:12:26.063Z,25.40
2022-12-17T18:16:48.838Z,24.08
2022-12-17T18:21:15.235Z,23.13
2022-12-17T18:25:37.821Z,23.73
2022-12-17T18:30:00.003Z,24.27
2022-12-17T18:34:27.836Z,23.67
2022-12-17T18:39:08.293Z,23.83
2022-12-17T18:43:30.096Z,23.15
2022-12-17T18:47:51.990Z,25.80
2022-12-17T18:52:16.977Z,26.05
2022-12-17T18:57:00.501Z,27.23
2022-12-17T19:01:30.839Z,25.58
2022-12-17T19:05:54.337Z,29.00
2022-12-17T19:10:16.319Z,31.13
2022-12-17T19:14:39.010Z,36.17
2022-12-17T19:19:03.298Z,32.50
2022-12-17T19:23:28.760Z,34.95
2022-12-17T19:27:53.406Z,34.90
2022-12-17T19:32:15.225Z,33.97
2022-12-17T19:36:39.067Z,34.53
2022-12-17T19:41:10.185Z,36.87
2022-12-17T19:45:32.908Z,36.95
2022-12-17T19:49:54.907Z,36.92
2022-12-17T19:54:16.911Z,35.20
2022-12-17T19:58:42.815Z,38.57
2022-12-17T20:03:05.096Z,36.53
2022-12-17T20:07:26.771Z,34.95
2022-12-17T20:11:48.655Z,37.10
2022-12-17T20:16:10.631Z,34.80
2022-12-17T20:20:32.911Z,36.17
2022-12-17T20:24:54.867Z,34.40
2022-12-17T20:29:18.118Z,36.33
2022-12-17T20:33:40.341Z,47.27
2022-12-17T20:38:02.226Z,38.72
2022-12-17T20:42:24.519Z,39.13
2022-12-17T20:46:46.443Z,43.97
2022-12-17T20:51:16.060Z,38.03
2022-12-17T20:55:37.771Z,36.20
2022-12-17T20:59:59.644Z,35.03
2022-12-17T21:04:21.711Z,34.93
2022-12-17T21:08:50.193Z,37.17
2022-12-17T21:13:30.824Z,35.10
2022-12-17T21:17:52.923Z,34.70
2022-12-17T21:22:14.872Z,33.20
2022-12-17T21:26:40.714Z,31.67
2022-12-17T21:31:03.744Z,32.87
2022-12-17T21:35:26.913Z,32.63
2022-12-17T21:39:48.608Z,35.20
2022-12-17T21:44:13.215Z,32.20
2022-12-17T21:48:42.351Z,33.30
2022-12-17T21:53:04.518Z,30.63
2022-12-17T21:57:26.328Z,31.20
2022-12-17T22:01:49.276Z,30.70
2022-12-17T22:06:15.278Z,26.97
2022-12-17T22:10:47.865Z,26.57
2022-12-17T22:15:12.387Z,29.90
2022-12-17T22:19:35.559Z,31.50
2022-12-17T22:23:57.551Z,28.33
2022-12-17T22:28:19.785Z,27.43
2022-12-17T22:32:59.930Z,23.93
2022-12-17T22:42:31.689Z,26.33
2022-12-17T22:44:30.124Z,28.77
2022-12-17T22:47:06.358Z,32.83
2022-12-17T22:51:33.451Z,27.97
2022-12-17T22:56:14.647Z,29.80
2022-12-17T23:00:41.506Z,31.37
2022-12-17T23:05:03.507Z,30.83
2022-12-17T23:09:25.506Z,30.80
2022-12-17T23:13:47.652Z,30.17
2022-12-17T23:18:10.282Z,29.20
2022-12-17T23:22:32.272Z,26.97
2022-12-17T23:26:54.201Z,26.73
2022-12-17T23:31:20.724Z,30.50
2022-12-17T23:35:42.646Z,32.30
2022-12-17T23:40:05.999Z,31.30
2022-12-17T23:44:28.099Z,30.73
2022-12-17T23:48:51.065Z,30.13
2022-12-17T23:53:12.509Z,32.50
2022-12-17T23:57:34.646Z,30.10
